createdAt,value
2023-04-03T00:01:02.731Z,8.20
2023-04-03T00:03:29.969Z,8.10
2023-04-03T00:05:57.178Z,8.10
2023-04-03T00:08:24.145Z,8.10
2023-04-03T00:10:51.813Z,8.10
2023-04-03T00:13:19.118Z,8.00
2023-04-03T00:15:46.263Z,8.00
2023-04-03T00:18:13.967Z,8.00
2023-04-03T00:20:40.965Z,7.90
2023-04-03T00:23:08.015Z,7.90
2023-04-03T00:25:35.125Z,7.90
2023-04-03T00:28:02.397Z,7.90
2023-04-03T00:30:29.461Z,7.80
2023-04-03T00:32:56.566Z,7.80
2023-04-03T00:35:24.763Z,7.70
2023-04-03T00:37:54.448Z,7.70
2023-04-03T00:40:23.641Z,7.70
2023-04-03T00:42:55.946Z,7.60
2023-04-03T00:45:38.188Z,7.60
2023-04-03T00:48:08.016Z,7.60
2023-04-03T00:50:40.521Z,7.50
2023-04-03T00:53:10.986Z,7.50
2023-04-03T00:55:39.794Z,7.50
2023-04-03T00:58:08.307Z,7.50
2023-04-03T01:00:38.938Z,7.50
2023-04-03T01:03:06.115Z,7.40
2023-04-03T01:05:33.553Z,7.40
2023-04-03T01:08:01.284Z,7.40
2023-04-03T01:10:29.260Z,7.40
2023-04-03T01:12:57.583Z,7.40
2023-04-03T01:15:27.400Z,7.30
2023-04-03T01:17:59.581Z,7.30
2023-04-03T01:20:32.948Z,7.30
2023-04-03T01:23:36.639Z,7.30
2023-04-03T01:26:04.285Z,7.30
2023-04-03T01:28:34.451Z,7.20
2023-04-03T01:31:25.451Z,7.20
2023-04-03T01:33:54.397Z,7.20
2023-04-03T01:36:25.563Z,7.10
2023-04-03T01:38:53.863Z,7.10
2023-04-03T01:41:22.063Z,7.10
2023-04-03T01:43:50.957Z,7.10
2023-04-03T01:46:19.469Z,7.00
2023-04-03T01:48:46.466Z,7.00
2023-04-03T01:51:14.683Z,7.00
2023-04-03T01:53:42.004Z,7.00
2023-04-03T01:56:09.341Z,7.00
2023-04-03T01:58:36.488Z,7.00
2023-04-03T02:01:04.247Z,6.90
2023-04-03T02:03:32.026Z,6.90
2023-04-03T02:05:59.550Z,6.90
2023-04-03T02:08:27.037Z,6.90
2023-04-03T02:10:54.004Z,6.90
2023-04-03T02:13:20.999Z,6.90
2023-04-03T02:15:50.243Z,6.90
2023-04-03T02:18:18.074Z,6.90
2023-04-03T02:20:45.022Z,6.80
2023-04-03T02:23:12.154Z,6.80
2023-04-03T02:25:39.320Z,6.80
2023-04-03T02:28:07.253Z,6.80
2023-04-03T02:30:34.238Z,6.80
2023-04-03T02:33:01.344Z,6.80
2023-04-03T02:35:28.347Z,6.70
2023-04-03T02:37:57.382Z,6.70
2023-04-03T02:40:24.760Z,6.70
2023-04-03T02:42:51.837Z,6.70
2023-04-03T02:45:20.132Z,6.70
2023-04-03T02:47:47.110Z,6.60
2023-04-03T02:50:14.216Z,6.60
2023-04-03T02:52:41.211Z,6.60
2023-04-03T02:55:08.629Z,6.60
2023-04-03T02:57:36.499Z,6.60
2023-04-03T03:00:04.191Z,6.60
2023-04-03T03:02:31.133Z,6.60
2023-04-03T03:04:58.247Z,6.50
2023-04-03T03:07:25.559Z,6.50
2023-04-03T03:09:52.401Z,6.50
2023-04-03T03:12:22.618Z,6.50
2023-04-03T03:14:50.696Z,6.50
2023-04-03T03:17:18.436Z,6.50
2023-04-03T03:19:46.932Z,6.40
2023-04-03T03:22:13.795Z,6.40
2023-04-03T03:24:40.733Z,6.40
2023-04-03T03:27:07.533Z,6.40
2023-04-03T03:29:34.551Z,6.40
2023-04-03T03:32:02.473Z,6.40
2023-04-03T03:34:29.352Z,6.40
2023-04-03T03:36:56.333Z,6.30
2023-04-03T03:39:23.537Z,6.30
2023-04-03T03:41:50.862Z,6.30
2023-04-03T03:44:18.168Z,6.30
2023-04-03T03:46:45.175Z,6.30
2023-04-03T03:49:12.870Z,6.30
2023-04-03T03:51:41.563Z,6.20
2023-04-03T03:54:09.064Z,6.20
2023-04-03T03:56:36.631Z,6.20
2023-04-03T03:59:03.947Z,6.20
2023-04-03T04:01:32.355Z,6.20
2023-04-03T04:03:59.538Z,6.10
2023-04-03T04:06:30.794Z,6.10
2023-04-03T04:09:02.596Z,6.10
2023-04-03T04:11:31.374Z,6.10
2023-04-03T04:13:58.382Z,6.10
2023-04-03T04:16:27.967Z,6.10
2023-04-03T04:18:56.717Z,6.10
2023-04-03T04:21:24.703Z,6.10
2023-04-03T04:23:53.415Z,6.10
2023-04-03T04:26:22.121Z,6.00
2023-04-03T04:28:49.006Z,6.00
2023-04-03T04:31:18.875Z,6.00
2023-04-03T04:33:46.529Z,6.00
2023-04-03T04:36:16.018Z,6.00
2023-04-03T04:38:45.399Z,5.90
2023-04-03T04:41:12.878Z,5.90
2023-04-03T04:43:39.764Z,5.90
2023-04-03T04:46:12.642Z,5.90
2023-04-03T04:48:44.747Z,5.90
2023-04-03T04:51:12.703Z,5.90
2023-04-03T04:53:40.014Z,5.80
2023-04-03T04:56:08.222Z,5.80
2023-04-03T04:58:37.170Z,5.80
2023-04-03T05:01:07.469Z,5.80
2023-04-03T05:03:37.962Z,5.80
2023-04-03T05:06:08.893Z,5.80
2023-04-03T05:08:37.320Z,5.70
2023-04-03T05:11:04.901Z,5.70
2023-04-03T05:13:32.220Z,5.70
2023-04-03T05:15:59.184Z,5.70
2023-04-03T05:18:26.251Z,5.70
2023-04-03T05:20:55.491Z,5.70
2023-04-03T05:23:25.530Z,5.60
2023-04-03T05:25:52.609Z,5.70
2023-04-03T05:28:22.354Z,5.70
2023-04-03T05:30:57.618Z,5.70
2023-04-03T05:33:27.848Z,5.70
2023-04-03T05:35:57.678Z,5.70
2023-04-03T05:38:28.061Z,5.70
2023-04-03T05:40:55.956Z,5.70
2023-04-03T05:43:22.823Z,5.70
2023-04-03T05:45:51.363Z,5.70
2023-04-03T05:48:19.937Z,5.70
2023-04-03T05:50:47.628Z,5.70
2023-04-03T05:53:26.011Z,5.70
2023-04-03T05:55:54.833Z,5.70
2023-04-03T05:58:22.220Z,5.70
2023-04-03T06:00:51.265Z,5.70
2023-04-03T06:03:18.942Z,5.70
2023-04-03T06:05:47.298Z,5.70
2023-04-03T06:08:15.593Z,5.80
2023-04-03T06:10:42.545Z,5.80
2023-04-03T06:13:09.477Z,5.80
2023-04-03T06:15:36.295Z,5.80
2023-04-03T06:18:03.794Z,5.80
2023-04-03T06:20:32.240Z,5.90
2023-04-03T06:22:59.450Z,5.90
2023-04-03T06:25:28.113Z,5.90
2023-04-03T06:27:56.572Z,6.00
2023-04-03T06:30:23.520Z,6.10
2023-04-03T06:32:50.548Z,6.10
2023-04-03T06:35:17.507Z,6.30
2023-04-03T06:37:44.470Z,6.40
2023-04-03T06:40:21.913Z,6.40
2023-04-03T06:42:48.897Z,6.50
2023-04-03T06:45:18.445Z,6.60
2023-04-03T06:47:49.885Z,6.70
2023-04-03T06:50:18.211Z,6.80
2023-04-03T06:52:45.035Z,6.80
2023-04-03T06:55:12.240Z,6.90
2023-04-03T06:57:39.189Z,7.00
2023-04-03T07:00:08.295Z,7.00
2023-04-03T07:02:35.348Z,7.10
2023-04-03T07:05:02.466Z,7.20
2023-04-03T07:07:29.309Z,7.20
2023-04-03T07:09:56.168Z,7.30
2023-04-03T07:12:23.024Z,7.30
2023-04-03T07:14:52.755Z,7.40
2023-04-03T07:17:19.605Z,7.50
2023-04-03T07:19:46.492Z,7.60
2023-04-03T07:22:13.399Z,7.60
2023-04-03T07:24:40.231Z,7.70
2023-04-03T07:27:09.434Z,7.80
2023-04-03T07:29:36.598Z,7.80
2023-04-03T07:32:04.905Z,7.90
2023-04-03T07:34:31.905Z,7.90
2023-04-03T07:36:58.902Z,8.00
2023-04-03T07:39:26.565Z,8.10
2023-04-03T07:41:53.340Z,8.10
2023-04-03T07:44:23.536Z,8.20
2023-04-03T07:46:51.537Z,8.20
2023-04-03T07:49:19.236Z,8.30
2023-04-03T07:51:46.466Z,8.40
2023-04-03T07:54:13.365Z,8.50
2023-04-03T07:56:40.350Z,8.50
2023-04-03T07:59:07.699Z,8.60
2023-04-03T08:01:34.781Z,8.70
2023-04-03T08:04:02.214Z,8.70
2023-04-03T08:06:44.980Z,8.70
2023-04-03T08:09:16.305Z,8.80
2023-04-03T08:11:43.599Z,9.00
2023-04-03T08:14:16.408Z,9.10
2023-04-03T08:16:45.649Z,9.10
2023-04-03T08:19:22.490Z,9.30
2023-04-03T08:21:52.739Z,9.30
2023-04-03T08:24:19.654Z,9.30
2023-04-03T08:26:46.477Z,9.40
2023-04-03T08:29:14.501Z,9.40
2023-04-03T08:31:41.346Z,9.50
2023-04-03T08:34:08.251Z,9.60
2023-04-03T08:36:35.418Z,9.70
2023-04-03T08:39:02.796Z,9.80
2023-04-03T08:41:41.402Z,9.80
2023-04-03T08:44:20.184Z,9.90
2023-04-03T08:47:21.397Z,10.00
2023-04-03T08:49:52.482Z,10.10
2023-04-03T08:52:24.757Z,10.20
2023-04-03T08:55:02.418Z,10.20
2023-04-03T08:57:36.758Z,10.20
2023-04-03T09:00:21.456Z,10.30
2023-04-03T09:02:53.982Z,10.50
2023-04-03T09:05:40.433Z,10.60
2023-04-03T09:08:24.077Z,10.60
2023-04-03T09:10:59.667Z,10.60
2023-04-03T09:13:43.194Z,10.70
2023-04-03T09:16:26.724Z,10.80
2023-04-03T09:19:32.550Z,10.80
2023-04-03T09:22:32.752Z,10.90
2023-04-03T09:25:34.308Z,11.00
2023-04-03T09:28:10.717Z,11.00
2023-04-03T09:30:39.334Z,11.00
2023-04-03T09:33:08.202Z,11.10
2023-04-03T09:35:48.100Z,11.10
2023-04-03T09:38:22.073Z,11.30
2023-04-03T09:40:52.149Z,11.40
2023-04-03T09:43:27.264Z,11.40
2023-04-03T09:45:55.332Z,11.50
2023-04-03T09:48:27.636Z,11.50
2023-04-03T09:50:59.760Z,11.50
2023-04-03T09:53:43.579Z,11.50
2023-04-03T09:56:21.779Z,11.50
2023-04-03T09:59:13.215Z,11.50
2023-04-03T10:01:44.369Z,11.50
2023-04-03T10:04:19.853Z,11.60
2023-04-03T10:06:48.329Z,11.70
2023-04-03T10:09:24.899Z,11.70
2023-04-03T10:12:13.213Z,11.80
2023-04-03T10:14:58.052Z,11.80
2023-04-03T10:17:49.498Z,11.80
2023-04-03T10:20:54.844Z,11.80
2023-04-03T10:23:37.992Z,11.80
2023-04-03T10:26:53.120Z,11.80
2023-04-03T10:29:46.624Z,11.90
2023-04-03T10:32:35.311Z,12.00
2023-04-03T10:35:14.649Z,12.10
2023-04-03T10:38:02.841Z,12.10
2023-04-03T10:40:48.543Z,12.20
2023-04-03T10:43:43.754Z,12.20
2023-04-03T10:46:34.029Z,12.20
2023-04-03T10:49:23.335Z,12.30
2023-04-03T10:52:00.562Z,12.40
2023-04-03T10:54:54.798Z,12.40
2023-04-03T10:57:25.050Z,12.40
2023-04-03T11:00:00.359Z,12.40
2023-04-03T11:02:37.812Z,12.50
2023-04-03T11:05:15.908Z,12.60
2023-04-03T11:07:49.770Z,12.70
2023-04-03T11:10:36.530Z,12.80
2023-04-03T11:13:08.122Z,12.90
2023-04-03T11:15:35.404Z,13.00
2023-04-03T11:18:14.242Z,13.00
2023-04-03T11:20:45.570Z,13.00
2023-04-03T11:23:28.433Z,13.10
2023-04-03T11:26:14.360Z,13.10
2023-04-03T11:28:42.549Z,13.20
2023-04-03T11:31:58.692Z,13.20
2023-04-03T11:34:28.931Z,13.20
2023-04-03T11:37:01.636Z,13.30
2023-04-03T11:39:33.647Z,13.30
2023-04-03T11:42:38.539Z,13.30
2023-04-03T11:45:18.113Z,13.30
2023-04-03T11:47:48.601Z,13.30
2023-04-03T11:50:38.760Z,13.40
2023-04-03T11:53:09.081Z,13.40
2023-04-03T11:55:36.906Z,13.30
2023-04-03T11:58:13.044Z,13.30
2023-04-03T12:00:50.133Z,13.30
2023-04-03T12:03:29.955Z,13.30
2023-04-03T12:06:06.600Z,13.30
2023-04-03T12:08:43.368Z,13.40
2023-04-03T12:11:10.521Z,13.50
2023-04-03T12:13:56.127Z,13.50
2023-04-03T12:16:48.698Z,13.50
2023-04-03T12:19:15.816Z,13.50
2023-04-03T12:21:57.789Z,13.60
2023-04-03T12:24:32.663Z,13.60
2023-04-03T12:27:22.641Z,13.60
2023-04-03T12:30:04.933Z,13.60
2023-04-03T12:32:40.745Z,13.70
2023-04-03T12:35:29.110Z,13.70
2023-04-03T12:38:17.821Z,13.70
2023-04-03T12:41:02.963Z,13.70
2023-04-03T12:43:41.115Z,13.70
2023-04-03T12:46:08.074Z,13.80
2023-04-03T12:48:54.651Z,13.80
2023-04-03T12:51:45.635Z,13.90
2023-04-03T12:54:38.036Z,13.90
2023-04-03T12:57:11.925Z,13.90
2023-04-03T12:59:39.264Z,13.90
2023-04-03T13:02:23.678Z,13.90
2023-04-03T13:04:54.722Z,13.90
2023-04-03T13:07:35.954Z,13.90
2023-04-03T13:10:11.304Z,13.90
2023-04-03T13:12:50.528Z,14.00
2023-04-03T13:15:25.790Z,13.90
2023-04-03T13:17:54.694Z,13.90
2023-04-03T13:20:29.833Z,13.90
2023-04-03T13:22:58.708Z,14.00
2023-04-03T13:25:28.991Z,14.00
2023-04-03T13:28:06.434Z,14.00
2023-04-03T13:30:42.155Z,14.00
2023-04-03T13:33:24.551Z,14.00
2023-04-03T13:36:03.192Z,14.10
2023-04-03T13:38:35.134Z,14.10
2023-04-03T13:41:06.614Z,14.20
2023-04-03T13:43:37.148Z,14.20
2023-04-03T13:46:13.278Z,14.20
2023-04-03T13:48:47.180Z,14.20
2023-04-03T13:51:14.074Z,14.30
2023-04-03T13:53:50.380Z,14.20
2023-04-03T13:56:24.801Z,14.30
2023-04-03T13:59:12.996Z,14.50
2023-04-03T14:02:09.177Z,14.60
2023-04-03T14:05:00.939Z,14.70
2023-04-03T14:07:30.583Z,14.70
2023-04-03T14:09:57.836Z,14.60
2023-04-03T14:12:34.228Z,14.40
2023-04-03T14:15:03.009Z,14.30
2023-04-03T14:17:30.264Z,14.40
2023-04-03T14:19:59.136Z,14.40
2023-04-03T14:22:31.263Z,14.40
2023-04-03T14:24:59.538Z,14.50
2023-04-03T14:27:30.909Z,14.50
2023-04-03T14:29:59.087Z,14.60
2023-04-03T14:32:29.890Z,14.70
2023-04-03T14:34:59.122Z,14.80
2023-04-03T14:37:30.305Z,14.90
2023-04-03T14:39:59.428Z,15.00
2023-04-03T14:42:36.623Z,15.10
2023-04-03T14:45:11.220Z,15.30
2023-04-03T14:47:49.549Z,15.40
2023-04-03T14:50:26.510Z,15.40
2023-04-03T14:52:57.542Z,15.40
2023-04-03T14:55:31.917Z,15.30
2023-04-03T14:58:08.300Z,15.40
2023-04-03T15:00:35.697Z,15.40
2023-04-03T15:03:02.875Z,15.30
2023-04-03T15:05:30.346Z,15.10
2023-04-03T15:07:59.110Z,15.10
2023-04-03T15:10:28.780Z,15.00
2023-04-03T15:12:56.778Z,15.00
2023-04-03T15:15:25.143Z,15.00
2023-04-03T15:17:58.827Z,15.10
2023-04-03T15:20:29.763Z,15.10
2023-04-03T15:23:01.799Z,15.10
2023-04-03T15:25:33.381Z,15.20
2023-04-03T15:28:00.966Z,15.20
2023-04-03T15:30:28.609Z,15.20
2023-04-03T15:32:55.673Z,15.20
2023-04-03T15:35:23.120Z,15.30
2023-04-03T15:37:50.285Z,15.30
2023-04-03T15:40:17.230Z,15.40
2023-04-03T15:42:46.369Z,15.50
2023-04-03T15:45:13.516Z,15.50
2023-04-03T15:47:40.703Z,15.50
2023-04-03T15:50:09.033Z,15.50
2023-04-03T15:52:37.362Z,15.50
2023-04-03T15:55:05.073Z,15.60
2023-04-03T15:59:58.632Z,15.50
2023-04-03T16:02:28.596Z,15.40
2023-04-03T16:04:56.633Z,15.40
2023-04-03T16:07:23.554Z,15.40
2023-04-03T16:09:50.379Z,15.30
2023-04-03T16:12:17.292Z,15.30
2023-04-03T16:14:44.174Z,15.40
2023-04-03T16:17:11.104Z,15.30
2023-04-03T16:19:38.016Z,15.30
2023-04-03T16:22:04.930Z,15.20
2023-04-03T16:24:33.229Z,15.10
2023-04-03T16:27:00.346Z,15.20
2023-04-03T16:29:27.748Z,15.10
2023-04-03T16:31:54.761Z,15.20
2023-04-03T16:34:21.664Z,15.20
2023-04-03T16:36:49.387Z,15.30
2023-04-03T16:39:16.645Z,15.20
2023-04-03T16:41:43.510Z,15.20
2023-04-03T16:44:12.789Z,15.40
2023-04-03T16:46:39.785Z,15.40
2023-04-03T16:49:06.790Z,15.50
2023-04-03T16:51:34.327Z,15.60
2023-04-03T16:54:01.380Z,15.60
2023-04-03T16:56:30.605Z,15.70
2023-04-03T16:58:57.496Z,15.90
2023-04-03T17:01:25.083Z,15.90
2023-04-03T17:03:52.763Z,15.90
2023-04-03T17:06:21.998Z,16.00
2023-04-03T17:08:50.892Z,16.10
2023-04-03T17:11:28.034Z,16.50
2023-04-03T17:13:55.062Z,17.30
2023-04-03T17:16:24.375Z,18.00
2023-04-03T17:18:52.490Z,18.50
2023-04-03T17:21:19.680Z,18.50
2023-04-03T17:23:52.121Z,18.30
2023-04-03T17:26:19.359Z,18.10
2023-04-03T17:28:46.874Z,18.00
2023-04-03T17:31:14.085Z,18.00
2023-04-03T17:33:41.096Z,17.90
2023-04-03T17:36:08.337Z,17.90
2023-04-03T17:38:36.000Z,17.90
2023-04-03T17:41:06.460Z,17.80
2023-04-03T17:43:34.373Z,17.70
2023-04-03T17:46:04.018Z,17.50
2023-04-03T17:48:33.265Z,17.10
2023-04-03T17:51:04.314Z,16.60
2023-04-03T17:53:34.363Z,16.10
2023-04-03T17:56:28.506Z,15.60
2023-04-03T17:58:58.171Z,15.00
2023-04-03T18:01:28.660Z,14.60
2023-04-03T18:03:57.995Z,14.20
2023-04-03T18:06:30.878Z,14.00
2023-04-03T18:09:20.377Z,13.70
2023-04-03T18:11:48.669Z,13.50
2023-04-03T18:14:19.611Z,13.20
2023-04-03T18:16:46.767Z,13.00
2023-04-03T18:21:45.889Z,12.70
2023-04-03T18:24:16.786Z,12.50
2023-04-03T18:26:46.919Z,12.40
2023-04-03T18:29:14.194Z,12.30
2023-04-03T18:31:44.312Z,12.30
2023-04-03T18:34:12.088Z,12.20
2023-04-03T18:36:39.089Z,12.10
2023-04-03T18:39:06.559Z,12.10
2023-04-03T18:41:36.935Z,12.00
2023-04-03T18:44:08.456Z,11.90
2023-04-03T18:49:06.441Z,11.70
2023-04-03T18:51:33.417Z,11.70
2023-04-03T18:54:04.153Z,11.70
2023-04-03T18:56:36.791Z,11.60
2023-04-03T18:59:04.276Z,11.60
2023-04-03T19:01:35.172Z,11.50
2023-04-03T19:04:02.432Z,11.50
2023-04-03T19:06:29.793Z,11.40
2023-04-03T19:08:56.942Z,11.40
2023-04-03T19:12:09.281Z,11.40
2023-04-03T19:14:36.863Z,11.40
2023-04-03T19:17:04.226Z,11.40
2023-04-03T19:19:34.188Z,11.30
2023-04-03T19:22:01.240Z,11.30
2023-04-03T19:24:28.174Z,11.30
2023-04-03T19:26:55.528Z,11.20
2023-04-03T19:29:22.553Z,11.20
2023-04-03T19:31:49.736Z,11.10
2023-04-03T19:34:16.998Z,11.10
2023-04-03T19:36:45.357Z,11.00
2023-04-03T19:39:14.803Z,10.90
2023-04-03T19:41:43.001Z,10.90
2023-04-03T19:44:13.437Z,10.80
2023-04-03T19:46:40.811Z,10.80
2023-04-03T19:49:18.033Z,10.70
2023-04-03T19:51:48.048Z,10.70
2023-04-03T19:54:15.235Z,10.60
2023-04-03T19:56:42.682Z,10.60
2023-04-03T19:59:09.982Z,10.60
2023-04-03T20:01:37.990Z,10.60
2023-04-03T20:04:05.705Z,10.60
2023-04-03T20:06:33.604Z,10.50
2023-04-03T20:09:01.366Z,10.50
2023-04-03T20:11:28.294Z,10.50
2023-04-03T20:17:43.611Z,10.40
2023-04-03T20:21:02.102Z,10.40
2023-04-03T20:23:29.843Z,10.30
2023-04-03T20:26:09.302Z,10.30
2023-04-03T20:28:38.596Z,10.20
2023-04-03T20:31:08.000Z,10.20
2023-04-03T20:33:35.793Z,10.10
2023-04-03T20:36:04.219Z,10.10
2023-04-03T20:38:31.319Z,10.10
2023-04-03T20:40:58.328Z,10.10
2023-04-03T20:43:25.416Z,10.00
2023-04-03T20:45:52.629Z,10.00
2023-04-03T20:52:41.774Z,9.90
2023-04-03T23:32:30.225Z,7.80
2023-04-03T23:34:57.191Z,7.80
2023-04-03T23:37:24.326Z,7.80
2023-04-03T23:39:51.296Z,7.80
2023-04-03T23:42:18.249Z,7.80
2023-04-03T23:44:45.187Z,7.70
2023-04-03T23:47:12.089Z,7.80
2023-04-03T23:49:39.044Z,7.70
2023-04-03T23:52:06.197Z,7.70
2023-04-03T23:54:33.418Z,7.70
2023-04-03T23:57:01.005Z,7.70
2023-04-03T23:59:28.201Z,7.70
